sensor_id;sensor_type;location;lat;lon;timestamp;temperature;humidity
2653;DHT22;1336;48.692;9.144;2022-09-14T05:00:19;20.30;97.20
2653;DHT22;1336;48.692;9.144;2022-09-14T05:01:13;20.30;97.20
2653;DHT22;1336;48.692;9.144;2022-09-14T05:02:04;20.30;97.20
2653;DHT22;1336;48.692;9.144;2022-09-14T05:02:55;20.30;97.20
2653;DHT22;1336;48.692;9.144;2022-09-14T05:03:46;20.30;97.20
2653;DHT22;1336;48.692;9.144;2022-09-14T05:04:37;20.20;97.20
2653;DHT22;1336;48.692;9.144;2022-09-14T05:05:30;20.20;97.20
2653;DHT22;1336;48.692;9.144;2022-09-14T05:06:22;20.20;97.20
2653;DHT22;1336;48.692;9.144;2022-09-14T05:07:14;20.20;97.20
2653;DHT22;1336;48.692;9.144;2022-09-14T05:08:05;20.20;97.20
2653;DHT22;1336;48.692;9.144;2022-09-14T05:08:58;20.20;97.20
2653;DHT22;1336;48.692;9.144;2022-09-14T05:09:49;20.20;97.20
2653;DHT22;1336;48.692;9.144;2022-09-14T05:10:41;20.20;97.20
2653;DHT22;1336;48.692;9.144;2022-09-14T05:11:33;20.20;97.20
2653;DHT22;1336;48.692;9.144;2022-09-14T05:12:25;20.20;97.20
2653;DHT22;1336;48.692;9.144;2022-09-14T05:13:16;20.20;97.20
2653;DHT22;1336;48.692;9.144;2022-09-14T05:14:09;20.10;97.20
2653;DHT22;1336;48.692;9.144;2022-09-14T05:15:00;20.10;97.20
2653;DHT22;1336;48.692;9.144;2022-09-14T05:15:53;20.10;97.20
2653;DHT22;1336;48.692;9.144;2022-09-14T05:16:45;20.10;97.20
2653;DHT22;1336;48.692;9.144;2022-09-14T05:17:37;20.10;97.20
2653;DHT22;1336;48.692;9.144;2022-09-14T05:18:28;20.10;97.20
2653;DHT22;1336;48.692;9.144;2022-09-14T05:19:20;20.10;97.20
2653;DHT22;1336;48.692;9.144;2022-09-14T05:20:11;20.10;97.20
2653;DHT22;1336;48.692;9.144;2022-09-14T05:21:03;20.10;97.20
2653;DHT22;1336;48.692;9.144;2022-09-14T05:21:54;20.10;97.20
2653;DHT22;1336;48.692;9.144;2022-09-14T05:22:48;20.10;97.20
2653;DHT22;1336;48.692;9.144;2022-09-14T05:23:39;20.10;97.20
2653;DHT22;1336;48.692;9.144;2022-09-14T05:24:31;20.10;97.20
2653;DHT22;1336;48.692;9.144;2022-09-14T05:25:23;20.10;97.20
2653;DHT22;1336;48.692;9.144;2022-09-14T05:26:15;20.10;97.20
2653;DHT22;1336;48.692;9.144;2022-09-14T05:27:07;20.10;97.20
2653;DHT22;1336;48.692;9.144;2022-09-14T05:27:57;20.20;97.20
2653;DHT22;1336;48.692;9.144;2022-09-14T05:28:50;20.10;97.20
2653;DHT22;1336;48.692;9.144;2022-09-14T05:29:42;20.20;97.20
2653;DHT22;1336;48.692;9.144;2022-09-14T05:30:33;20.10;97.20
2653;DHT22;1336;48.692;9.144;2022-09-14T05:31:27;20.20;97.20
2653;DHT22;1336;48.692;9.144;2022-09-14T05:32:19;20.10;97.20
2653;DHT22;1336;48.692;9.144;2022-09-14T05:33:10;20.10;97.20
2653;DHT22;1336;48.692;9.144;2022-09-14T05:34:01;20.10;97.20
2653;DHT22;1336;48.692;9.144;2022-09-14T05:34:52;20.10;97.20
2653;DHT22;1336;48.692;9.144;2022-09-14T05:35:44;20.10;97.20
2653;DHT22;1336;48.692;9.144;2022-09-14T05:36:35;20.10;97.20
2653;DHT22;1336;48.692;9.144;2022-09-14T05:37:27;20.20;97.20
2653;DHT22;1336;48.692;9.144;2022-09-14T05:38:17;20.20;97.20
2653;DHT22;1336;48.692;9.144;2022-09-14T05:39:09;20.20;97.20
2653;DHT22;1336;48.692;9.144;2022-09-14T05:40:00;20.20;97.20
2653;DHT22;1336;48.692;9.144;2022-09-14T05:40:53;20.20;97.20
2653;DHT22;1336;48.692;9.144;2022-09-14T05:41:43;20.20;97.20
2653;DHT22;1336;48.692;9.144;2022-09-14T05:42:35;20.20;97.20
2653;DHT22;1336;48.692;9.144;2022-09-14T05:43:27;20.20;97.20
2653;DHT22;1336;48.692;9.144;2022-09-14T05:44:19;20.20;97.20
2653;DHT22;1336;48.692;9.144;2022-09-14T05:45:10;20.20;97.20
2653;DHT22;1336;48.692;9.144;2022-09-14T05:46:03;20.30;97.20
2653;DHT22;1336;48.692;9.144;2022-09-14T05:46:55;20.30;97.20
2653;DHT22;1336;48.692;9.144;2022-09-14T05:47:46;20.30;97.20
2653;DHT22;1336;48.692;9.144;2022-09-14T05:48:38;20.30;97.20
2653;DHT22;1336;48.692;9.144;2022-09-14T05:49:30;20.30;97.20
2653;DHT22;1336;48.692;9.144;2022-09-14T05:50:21;20.30;97.20
2653;DHT22;1336;48.692;9.144;2022-09-14T05:51:15;20.30;97.20
2653;DHT22;1336;48.692;9.144;2022-09-14T05:52:06;20.30;97.20
2653;DHT22;1336;48.692;9.144;2022-09-14T05:52:58;20.30;97.20
2653;DHT22;1336;48.692;9.144;2022-09-14T05:53:50;20.30;97.20
2653;DHT22;1336;48.692;9.144;2022-09-14T05:54:41;20.30;97.20
2653;DHT22;1336;48.692;9.144;2022-09-14T05:55:32;20.40;97.20
2653;DHT22;1336;48.692;9.144;2022-09-14T05:56:25;20.40;97.20
2653;DHT22;1336;48.692;9.144;2022-09-14T05:57:16;20.40;97.20
2653;DHT22;1336;48.692;9.144;2022-09-14T05:58:08;20.40;97.20
2653;DHT22;1336;48.692;9.144;2022-09-14T05:59:00;20.40;97.20
2653;DHT22;1336;48.692;9.144;2022-09-14T05:59:51;20.40;97.20
2653;DHT22;1336;48.692;9.144;2022-09-14T06:00:42;20.40;97.20
2653;DHT22;1336;48.692;9.144;2022-09-14T06:01:34;20.40;97.20
2653;DHT22;1336;48.692;9.144;2022-09-14T06:02:26;20.40;97.20
2653;DHT22;1336;48.692;9.144;2022-09-14T06:03:18;20.50;97.20
2653;DHT22;1336;48.692;9.144;2022-09-14T06:04:09;20.50;97.20
2653;DHT22;1336;48.692;9.144;2022-09-14T06:05:01;20.50;97.20
2653;DHT22;1336;48.692;9.144;2022-09-14T06:05:56;20.50;97.20
2653;DHT22;1336;48.692;9.144;2022-09-14T06:06:48;20.50;97.20
2653;DHT22;1336;48.692;9.144;2022-09-14T06:07:40;20.60;97.20
2653;DHT22;1336;48.692;9.144;2022-09-14T06:08:31;20.60;97.20
2653;DHT22;1336;48.692;9.144;2022-09-14T06:09:22;20.60;97.20
2653;DHT22;1336;48.692;9.144;2022-09-14T06:10:13;20.60;97.20
2653;DHT22;1336;48.692;9.144;2022-09-14T06:11:07;20.60;97.20
2653;DHT22;1336;48.692;9.144;2022-09-14T06:11:58;20.60;97.20
2653;DHT22;1336;48.692;9.144;2022-09-14T06:12:49;20.60;97.20
2653;DHT22;1336;48.692;9.144;2022-09-14T06:13:41;20.70;97.20
2653;DHT22;1336;48.692;9.144;2022-09-14T06:14:33;20.70;97.20
2653;DHT22;1336;48.692;9.144;2022-09-14T06:15:23;20.60;97.20
2653;DHT22;1336;48.692;9.144;2022-09-14T06:16:17;20.60;97.20
2653;DHT22;1336;48.692;9.144;2022-09-14T06:17:08;20.70;97.20
2653;DHT22;1336;48.692;9.144;2022-09-14T06:18:01;20.70;97.20
2653;DHT22;1336;48.692;9.144;2022-09-14T06:18:53;20.70;97.20
2653;DHT22;1336;48.692;9.144;2022-09-14T06:19:45;20.70;97.20
2653;DHT22;1336;48.692;9.144;2022-09-14T06:20:36;20.70;97.20
2653;DHT22;1336;48.692;9.144;2022-09-14T06:21:29;20.70;97.20
2653;DHT22;1336;48.692;9.144;2022-09-14T06:22:20;20.70;97.20
2653;DHT22;1336;48.692;9.144;2022-09-14T06:23:12;20.70;97.20
2653;DHT22;1336;48.692;9.144;2022-09-14T06:24:03;20.70;97.20
2653;DHT22;1336;48.692;9.144;2022-09-14T06:24:55;20.70;97.20
2653;DHT22;1336;48.692;9.144;2022-09-14T06:25:46;20.70;97.20
2653;DHT22;1336;48.692;9.144;2022-09-14T06:26:37;20.70;97.20
2653;DHT22;1336;48.692;9.144;2022-09-14T06:27:28;20.70;97.20
2653;DHT22;1336;48.692;9.144;2022-09-14T06:28:20;20.70;97.20
2653;DHT22;1336;48.692;9.144;2022-09-14T06:29:11;20.70;97.20
2653;DHT22;1336;48.692;9.144;2022-09-14T06:30:03;20.70;97.20
2653;DHT22;1336;48.692;9.144;2022-09-14T06:30:54;20.80;97.20
2653;DHT22;1336;48.692;9.144;2022-09-14T06:31:46;20.80;97.20
2653;DHT22;1336;48.692;9.144;2022-09-14T06:32:37;20.80;97.20
2653;DHT22;1336;48.692;9.144;2022-09-14T06:33:30;20.80;97.20
2653;DHT22;1336;48.692;9.144;2022-09-14T06:34:22;20.80;97.20
2653;DHT22;1336;48.692;9.144;2022-09-14T06:35:13;20.80;97.20
2653;DHT22;1336;48.692;9.144;2022-09-14T06:36:06;20.80;97.20
2653;DHT22;1336;48.692;9.144;2022-09-14T06:37:00;20.80;97.20
2653;DHT22;1336;48.692;9.144;2022-09-14T06:37:52;20.80;97.20
2653;DHT22;1336;48.692;9.144;2022-09-14T06:38:45;20.80;97.20
2653;DHT22;1336;48.692;9.144;2022-09-14T06:39:38;20.80;97.20
2653;DHT22;1336;48.692;9.144;2022-09-14T06:40:29;20.80;97.20
2653;DHT22;1336;48.692;9.144;2022-09-14T06:41:23;20.80;97.20
2653;DHT22;1336;48.692;9.144;2022-09-14T06:42:15;20.80;97.20
2653;DHT22;1336;48.692;9.144;2022-09-14T06:43:07;20.80;97.20
2653;DHT22;1336;48.692;9.144;2022-09-14T06:43:59;20.80;97.20
2653;DHT22;1336;48.692;9.144;2022-09-14T06:44:51;20.80;97.20
2653;DHT22;1336;48.692;9.144;2022-09-14T06:45:41;20.80;97.20
2653;DHT22;1336;48.692;9.144;2022-09-14T06:46:33;20.80;97.20
2653;DHT22;1336;48.692;9.144;2022-09-14T06:47:24;20.80;97.20
2653;DHT22;1336;48.692;9.144;2022-09-14T06:48:16;20.80;97.20
2653;DHT22;1336;48.692;9.144;2022-09-14T06:49:11;20.80;97.20
2653;DHT22;1336;48.692;9.144;2022-09-14T06:50:03;20.90;97.20
2653;DHT22;1336;48.692;9.144;2022-09-14T06:50:54;20.90;97.20
2653;DHT22;1336;48.692;9.144;2022-09-14T06:51:46;20.90;97.20
2653;DHT22;1336;48.692;9.144;2022-09-14T06:52:37;20.90;97.20
2653;DHT22;1336;48.692;9.144;2022-09-14T06:53:29;20.90;97.20
2653;DHT22;1336;48.692;9.144;2022-09-14T06:54:20;20.90;97.20
2653;DHT22;1336;48.692;9.144;2022-09-14T06:55:12;20.90;97.20
2653;DHT22;1336;48.692;9.144;2022-09-14T06:56:02;20.90;97.20
2653;DHT22;1336;48.692;9.144;2022-09-14T06:56:54;21.00;97.20
2653;DHT22;1336;48.692;9.144;2022-09-14T06:57:47;21.00;97.20
2653;DHT22;1336;48.692;9.144;2022-09-14T06:58:38;21.00;97.20
2653;DHT22;1336;48.692;9.144;2022-09-14T06:59:30;21.00;97.20
2653;DHT22;1336;48.692;9.144;2022-09-14T07:00:21;21.00;97.20
2653;DHT22;1336;48.692;9.144;2022-09-14T07:01:15;21.00;97.20
2653;DHT22;1336;48.692;9.144;2022-09-14T07:02:07;21.00;97.20
2653;DHT22;1336;48.692;9.144;2022-09-14T07:02:59;21.10;97.20
2653;DHT22;1336;48.692;9.144;2022-09-14T07:03:50;21.10;97.20
2653;DHT22;1336;48.692;9.144;2022-09-14T07:04:43;21.10;97.20
2653;DHT22;1336;48.692;9.144;2022-09-14T07:05:34;21.10;97.20
2653;DHT22;1336;48.692;9.144;2022-09-14T07:06:27;21.10;97.20
2653;DHT22;1336;48.692;9.144;2022-09-14T07:07:18;21.10;97.20
2653;DHT22;1336;48.692;9.144;2022-09-14T07:08:10;21.10;97.20
2653;DHT22;1336;48.692;9.144;2022-09-14T07:09:03;21.10;97.20
2653;DHT22;1336;48.692;9.144;2022-09-14T07:09:55;21.10;97.20
2653;DHT22;1336;48.692;9.144;2022-09-14T07:10:55;21.10;97.20
2653;DHT22;1336;48.692;9.144;2022-09-14T07:11:46;21.10;97.20
2653;DHT22;1336;48.692;9.144;2022-09-14T07:12:38;21.20;97.20
2653;DHT22;1336;48.692;9.144;2022-09-14T07:13:30;21.10;97.20
2653;DHT22;1336;48.692;9.144;2022-09-14T07:14:22;21.20;97.20
2653;DHT22;1336;48.692;9.144;2022-09-14T07:15:12;21.20;97.20
2653;DHT22;1336;48.692;9.144;2022-09-14T07:16:05;21.20;97.20
2653;DHT22;1336;48.692;9.144;2022-09-14T07:16:56;21.20;97.20
2653;DHT22;1336;48.692;9.144;2022-09-14T07:17:47;21.20;97.20
2653;DHT22;1336;48.692;9.144;2022-09-14T07:18:38;21.20;97.20
2653;DHT22;1336;48.692;9.144;2022-09-14T07:19:30;21.30;97.20
2653;DHT22;1336;48.692;9.144;2022-09-14T07:20:22;21.30;97.20
2653;DHT22;1336;48.692;9.144;2022-09-14T07:21:15;21.30;97.20
2653;DHT22;1336;48.692;9.144;2022-09-14T07:22:07;21.30;97.20
2653;DHT22;1336;48.692;9.144;2022-09-14T07:22:59;21.30;97.20
2653;DHT22;1336;48.692;9.144;2022-09-14T07:23:49;21.30;97.20
2653;DHT22;1336;48.692;9.144;2022-09-14T07:24:41;21.30;97.20
2653;DHT22;1336;48.692;9.144;2022-09-14T07:25:32;21.40;97.20
2653;DHT22;1336;48.692;9.144;2022-09-14T07:26:26;21.40;97.20
2653;DHT22;1336;48.692;9.144;2022-09-14T07:27:18;21.40;97.20
2653;DHT22;1336;48.692;9.144;2022-09-14T07:28:09;21.40;97.20
2653;DHT22;1336;48.692;9.144;2022-09-14T07:29:03;21.40;97.20
2653;DHT22;1336;48.692;9.144;2022-09-14T07:29:55;21.40;97.20
2653;DHT22;1336;48.692;9.144;2022-09-14T07:30:46;21.40;97.20
2653;DHT22;1336;48.692;9.144;2022-09-14T07:31:40;21.40;97.20
2653;DHT22;1336;48.692;9.144;2022-09-14T07:32:31;21.40;97.20
2653;DHT22;1336;48.692;9.144;2022-09-14T07:33:23;21.40;97.20
2653;DHT22;1336;48.692;9.144;2022-09-14T07:34:14;21.40;97.20
2653;DHT22;1336;48.692;9.144;2022-09-14T07:35:06;21.40;97.20
2653;DHT22;1336;48.692;9.144;2022-09-14T07:36:05;21.40;97.20
2653;DHT22;1336;48.692;9.144;2022-09-14T07:36:57;21.50;97.20
2653;DHT22;1336;48.692;9.144;2022-09-14T07:37:48;21.50;97.20
2653;DHT22;1336;48.692;9.144;2022-09-14T07:38:40;21.50;97.20
2653;DHT22;1336;48.692;9.144;2022-09-14T07:39:31;21.50;97.20
2653;DHT22;1336;48.692;9.144;2022-09-14T07:40:22;21.50;97.20
2653;DHT22;1336;48.692;9.144;2022-09-14T07:41:13;21.50;97.20
2653;DHT22;1336;48.692;9.144;2022-09-14T07:42:05;21.50;97.20
2653;DHT22;1336;48.692;9.144;2022-09-14T07:42:56;21.50;97.20
2653;DHT22;1336;48.692;9.144;2022-09-14T07:43:48;21.50;97.20
2653;DHT22;1336;48.692;9.144;2022-09-14T07:44:39;21.60;97.20
2653;DHT22;1336;48.692;9.144;2022-09-14T07:45:31;21.60;97.20
2653;DHT22;1336;48.692;9.144;2022-09-14T07:46:22;21.60;97.20
2653;DHT22;1336;48.692;9.144;2022-09-14T07:47:14;21.60;97.20
2653;DHT22;1336;48.692;9.144;2022-09-14T07:48:05;21.70;97.20
2653;DHT22;1336;48.692;9.144;2022-09-14T07:48:59;21.70;97.20
2653;DHT22;1336;48.692;9.144;2022-09-14T07:49:50;21.70;97.20
2653;DHT22;1336;48.692;9.144;2022-09-14T07:50:41;21.70;97.20
2653;DHT22;1336;48.692;9.144;2022-09-14T07:51:34;21.80;97.20
2653;DHT22;1336;48.692;9.144;2022-09-14T07:52:26;21.80;97.20
2653;DHT22;1336;48.692;9.144;2022-09-14T07:53:17;21.80;97.20
2653;DHT22;1336;48.692;9.144;2022-09-14T07:54:11;21.80;97.20
2653;DHT22;1336;48.692;9.144;2022-09-14T07:55:02;21.90;97.20
2653;DHT22;1336;48.692;9.144;2022-09-14T07:55:57;21.90;97.20
2653;DHT22;1336;48.692;9.144;2022-09-14T07:56:48;21.90;97.20
2653;DHT22;1336;48.692;9.144;2022-09-14T07:57:40;21.90;97.20
2653;DHT22;1336;48.692;9.144;2022-09-14T07:58:30;22.00;97.20
2653;DHT22;1336;48.692;9.144;2022-09-14T07:59:22;22.00;97.20
2653;DHT22;1336;48.692;9.144;2022-09-14T08:00:14;22.00;97.20
2653;DHT22;1336;48.692;9.144;2022-09-14T08:01:07;22.00;97.20
2653;DHT22;1336;48.692;9.144;2022-09-14T08:01:59;22.00;97.20
2653;DHT22;1336;48.692;9.144;2022-09-14T08:02:53;22.10;97.20
2653;DHT22;1336;48.692;9.144;2022-09-14T08:03:47;22.10;97.20
2653;DHT22;1336;48.692;9.144;2022-09-14T08:04:38;22.10;97.20
2653;DHT22;1336;48.692;9.144;2022-09-14T08:05:30;22.10;97.20
2653;DHT22;1336;48.692;9.144;2022-09-14T08:06:22;22.20;97.20
2653;DHT22;1336;48.692;9.144;2022-09-14T08:07:16;22.20;97.20
2653;DHT22;1336;48.692;9.144;2022-09-14T08:08:07;22.20;97.20
2653;DHT22;1336;48.692;9.144;2022-09-14T08:08:59;22.30;97.20
2653;DHT22;1336;48.692;9.144;2022-09-14T08:09:49;22.40;97.20
2653;DHT22;1336;48.692;9.144;2022-09-14T08:10:41;22.40;97.20
2653;DHT22;1336;48.692;9.144;2022-09-14T08:11:32;22.40;97.20
2653;DHT22;1336;48.692;9.144;2022-09-14T08:12:24;22.50;97.20
2653;DHT22;1336;48.692;9.144;2022-09-14T08:13:15;22.50;97.20
2653;DHT22;1336;48.692;9.144;2022-09-14T08:14:09;22.60;97.20
2653;DHT22;1336;48.692;9.144;2022-09-14T08:15:03;22.60;97.20
2653;DHT22;1336;48.692;9.144;2022-09-14T08:15:56;22.70;97.20
2653;DHT22;1336;48.692;9.144;2022-09-14T08:16:48;22.70;97.20
2653;DHT22;1336;48.692;9.144;2022-09-14T08:17:39;22.70;97.20
2653;DHT22;1336;48.692;9.144;2022-09-14T08:18:32;22.70;97.20
2653;DHT22;1336;48.692;9.144;2022-09-14T08:19:23;22.80;97.20
2653;DHT22;1336;48.692;9.144;2022-09-14T08:20:16;22.80;97.20
2653;DHT22;1336;48.692;9.144;2022-09-14T08:21:08;22.80;97.20
2653;DHT22;1336;48.692;9.144;2022-09-14T08:22:00;22.80;97.20
2653;DHT22;1336;48.692;9.144;2022-09-14T08:22:54;22.90;97.20
2653;DHT22;1336;48.692;9.144;2022-09-14T08:23:44;22.90;97.20
2653;DHT22;1336;48.692;9.144;2022-09-14T08:24:36;22.90;97.20
2653;DHT22;1336;48.692;9.144;2022-09-14T08:25:27;22.90;97.20
2653;DHT22;1336;48.692;9.144;2022-09-14T08:26:20;23.00;97.20
2653;DHT22;1336;48.692;9.144;2022-09-14T08:27:11;23.00;97.20
2653;DHT22;1336;48.692;9.144;2022-09-14T08:28:02;23.00;97.20
2653;DHT22;1336;48.692;9.144;2022-09-14T08:28:54;23.00;97.20
2653;DHT22;1336;48.692;9.144;2022-09-14T08:29:46;23.00;97.20
2653;DHT22;1336;48.692;9.144;2022-09-14T08:30:37;23.10;97.20
2653;DHT22;1336;48.692;9.144;2022-09-14T08:31:28;23.10;97.20
2653;DHT22;1336;48.692;9.144;2022-09-14T08:32:20;23.10;97.20
2653;DHT22;1336;48.692;9.144;2022-09-14T08:33:10;23.10;97.20
2653;DHT22;1336;48.692;9.144;2022-09-14T08:34:03;23.10;97.20
2653;DHT22;1336;48.692;9.144;2022-09-14T08:34:54;23.10;97.20
2653;DHT22;1336;48.692;9.144;2022-09-14T08:35:45;23.10;97.20
2653;DHT22;1336;48.692;9.144;2022-09-14T08:36:38;23.10;97.20
2653;DHT22;1336;48.692;9.144;2022-09-14T08:37:30;23.10;97.20
2653;DHT22;1336;48.692;9.144;2022-09-14T08:38:22;23.10;97.20
2653;DHT22;1336;48.692;9.144;2022-09-14T08:39:15;23.00;97.20
2653;DHT22;1336;48.692;9.144;2022-09-14T08:40:08;23.00;97.20
2653;DHT22;1336;48.692;9.144;2022-09-14T08:41:08;23.00;97.20
2653;DHT22;1336;48.692;9.144;2022-09-14T08:42:00;22.90;97.20
2653;DHT22;1336;48.692;9.144;2022-09-14T08:42:56;22.90;97.20
2653;DHT22;1336;48.692;9.144;2022-09-14T08:43:48;22.90;97.20
2653;DHT22;1336;48.692;9.144;2022-09-14T08:44:42;22.80;97.20
2653;DHT22;1336;48.692;9.144;2022-09-14T08:45:33;22.80;97.20
2653;DHT22;1336;48.692;9.144;2022-09-14T08:46:29;22.80;97.20
2653;DHT22;1336;48.692;9.144;2022-09-14T08:47:24;22.80;97.20
2653;DHT22;1336;48.692;9.144;2022-09-14T08:48:21;22.70;97.20
2653;DHT22;1336;48.692;9.144;2022-09-14T08:49:19;22.70;97.20
2653;DHT22;1336;48.692;9.144;2022-09-14T08:50:13;22.70;97.20
2653;DHT22;1336;48.692;9.144;2022-09-14T08:51:07;22.70;97.20
2653;DHT22;1336;48.692;9.144;2022-09-14T08:51:58;22.70;97.20
2653;DHT22;1336;48.692;9.144;2022-09-14T08:52:51;22.70;97.20
2653;DHT22;1336;48.692;9.144;2022-09-14T08:53:45;22.70;97.20
2653;DHT22;1336;48.692;9.144;2022-09-14T08:54:36;22.70;97.20
2653;DHT22;1336;48.692;9.144;2022-09-14T08:55:32;22.80;97.20
2653;DHT22;1336;48.692;9.144;2022-09-14T08:56:28;22.80;97.20
2653;DHT22;1336;48.692;9.144;2022-09-14T08:57:26;22.80;97.20
2653;DHT22;1336;48.692;9.144;2022-09-14T08:58:32;22.90;97.20
2653;DHT22;1336;48.692;9.144;2022-09-14T08:59:35;22.90;97.20
2653;DHT22;1336;48.692;9.144;2022-09-14T09:00:35;23.00;97.20
2653;DHT22;1336;48.692;9.144;2022-09-14T09:01:33;23.00;97.20
2653;DHT22;1336;48.692;9.144;2022-09-14T09:02:45;23.10;97.20
2653;DHT22;1336;48.692;9.144;2022-09-14T09:04:01;23.20;97.20
2653;DHT22;1336;48.692;9.144;2022-09-14T09:05:00;23.20;97.20
2653;DHT22;1336;48.692;9.144;2022-09-14T09:05:57;23.30;97.20
2653;DHT22;1336;48.692;9.144;2022-09-14T09:06:57;23.30;97.20
2653;DHT22;1336;48.692;9.144;2022-09-14T09:07:57;23.40;97.20
2653;DHT22;1336;48.692;9.144;2022-09-14T09:08:59;23.50;97.20
2653;DHT22;1336;48.692;9.144;2022-09-14T09:09:55;23.50;97.20
2653;DHT22;1336;48.692;9.144;2022-09-14T09:10:47;23.60;97.20
2653;DHT22;1336;48.692;9.144;2022-09-14T09:11:41;23.70;97.20
2653;DHT22;1336;48.692;9.144;2022-09-14T09:12:35;23.70;97.20
2653;DHT22;1336;48.692;9.144;2022-09-14T09:13:31;23.80;97.20
2653;DHT22;1336;48.692;9.144;2022-09-14T09:14:28;23.90;97.20
2653;DHT22;1336;48.692;9.144;2022-09-14T09:15:23;23.90;97.20
2653;DHT22;1336;48.692;9.144;2022-09-14T09:16:17;24.00;97.20
2653;DHT22;1336;48.692;9.144;2022-09-14T09:17:13;24.10;97.20
2653;DHT22;1336;48.692;9.144;2022-09-14T09:18:07;24.20;97.20
2653;DHT22;1336;48.692;9.144;2022-09-14T09:19:04;24.20;97.20
2653;DHT22;1336;48.692;9.144;2022-09-14T09:20:03;24.30;97.20
2653;DHT22;1336;48.692;9.144;2022-09-14T09:20:59;24.40;97.20
2653;DHT22;1336;48.692;9.144;2022-09-14T09:21:51;24.50;97.20
2653;DHT22;1336;48.692;9.144;2022-09-14T09:22:46;24.60;97.20
2653;DHT22;1336;48.692;9.144;2022-09-14T09:23:40;24.70;97.20
2653;DHT22;1336;48.692;9.144;2022-09-14T09:24:38;24.80;97.20
2653;DHT22;1336;48.692;9.144;2022-09-14T09:25:47;24.80;97.20
2653;DHT22;1336;48.692;9.144;2022-09-14T09:26:40;24.90;97.20
2653;DHT22;1336;48.692;9.144;2022-09-14T09:27:31;25.00;97.20
2653;DHT22;1336;48.692;9.144;2022-09-14T09:28:25;25.00;97.20
2653;DHT22;1336;48.692;9.144;2022-09-14T09:29:18;25.10;97.20
2653;DHT22;1336;48.692;9.144;2022-09-14T09:30:12;25.10;97.20
2653;DHT22;1336;48.692;9.144;2022-09-14T09:31:05;25.20;97.20
2653;DHT22;1336;48.692;9.144;2022-09-14T09:31:57;25.30;97.20
2653;DHT22;1336;48.692;9.144;2022-09-14T09:32:48;25.30;97.20
2653;DHT22;1336;48.692;9.144;2022-09-14T09:33:41;25.40;97.20
2653;DHT22;1336;48.692;9.144;2022-09-14T09:34:33;25.40;97.20
2653;DHT22;1336;48.692;9.144;2022-09-14T09:35:25;25.50;97.20
2653;DHT22;1336;48.692;9.144;2022-09-14T09:36:16;25.50;97.20
2653;DHT22;1336;48.692;9.144;2022-09-14T09:37:12;25.50;97.20
2653;DHT22;1336;48.692;9.144;2022-09-14T09:38:09;25.60;97.20
2653;DHT22;1336;48.692;9.144;2022-09-14T09:39:04;25.60;97.20
2653;DHT22;1336;48.692;9.144;2022-09-14T09:39:56;25.60;97.20
2653;DHT22;1336;48.692;9.144;2022-09-14T09:40:51;25.60;97.20
2653;DHT22;1336;48.692;9.144;2022-09-14T09:41:45;25.60;97.20
2653;DHT22;1336;48.692;9.144;2022-09-14T09:43:02;25.60;97.20
2653;DHT22;1336;48.692;9.144;2022-09-14T09:43:59;25.50;97.20
2653;DHT22;1336;48.692;9.144;2022-09-14T09:44:56;25.50;97.20
2653;DHT22;1336;48.692;9.144;2022-09-14T09:45:50;25.50;97.20
2653;DHT22;1336;48.692;9.144;2022-09-14T09:46:46;25.40;97.20
2653;DHT22;1336;48.692;9.144;2022-09-14T09:47:40;25.40;97.20
2653;DHT22;1336;48.692;9.144;2022-09-14T09:48:37;25.40;97.20
2653;DHT22;1336;48.692;9.144;2022-09-14T09:49:32;25.40;97.20
2653;DHT22;1336;48.692;9.144;2022-09-14T09:50:24;25.40;97.20
2653;DHT22;1336;48.692;9.144;2022-09-14T09:51:26;25.50;97.20
2653;DHT22;1336;48.692;9.144;2022-09-14T09:52:17;25.50;97.20
2653;DHT22;1336;48.692;9.144;2022-09-14T09:53:14;25.60;97.20
2653;DHT22;1336;48.692;9.144;2022-09-14T09:54:10;25.70;97.20
2653;DHT22;1336;48.692;9.144;2022-09-14T09:55:18;25.80;97.20
2653;DHT22;1336;48.692;9.144;2022-09-14T09:56:16;25.90;97.20
2653;DHT22;1336;48.692;9.144;2022-09-14T09:57:20;26.00;97.20
2653;DHT22;1336;48.692;9.144;2022-09-14T09:58:27;26.10;97.20
2653;DHT22;1336;48.692;9.144;2022-09-14T09:59:27;26.10;97.20
2653;DHT22;1336;48.692;9.144;2022-09-14T10:00:21;26.10;97.20
2653;DHT22;1336;48.692;9.144;2022-09-14T10:01:18;26.20;97.20
2653;DHT22;1336;48.692;9.144;2022-09-14T10:02:22;26.20;97.20
2653;DHT22;1336;48.692;9.144;2022-09-14T10:03:27;26.20;97.20
2653;DHT22;1336;48.692;9.144;2022-09-14T10:04:21;26.20;97.20
2653;DHT22;1336;48.692;9.144;2022-09-14T10:05:22;26.20;97.20
2653;DHT22;1336;48.692;9.144;2022-09-14T10:06:14;26.30;97.20
2653;DHT22;1336;48.692;9.144;2022-09-14T10:07:07;26.30;97.20
2653;DHT22;1336;48.692;9.144;2022-09-14T10:08:14;26.40;97.20
2653;DHT22;1336;48.692;9.144;2022-09-14T10:09:13;26.40;97.20
2653;DHT22;1336;48.692;9.144;2022-09-14T10:10:06;26.50;97.20
2653;DHT22;1336;48.692;9.144;2022-09-14T10:11:01;26.50;97.20
2653;DHT22;1336;48.692;9.144;2022-09-14T10:11:57;26.60;97.20
2653;DHT22;1336;48.692;9.144;2022-09-14T10:12:50;26.60;97.20
2653;DHT22;1336;48.692;9.144;2022-09-14T10:13:46;26.60;97.20
2653;DHT22;1336;48.692;9.144;2022-09-14T10:14:37;26.70;97.20
2653;DHT22;1336;48.692;9.144;2022-09-14T10:15:31;26.80;97.20
2653;DHT22;1336;48.692;9.144;2022-09-14T10:16:24;26.80;97.20
2653;DHT22;1336;48.692;9.144;2022-09-14T10:17:21;26.80;97.20
2653;DHT22;1336;48.692;9.144;2022-09-14T10:18:17;26.80;97.20
2653;DHT22;1336;48.692;9.144;2022-09-14T10:19:13;26.80;97.20
2653;DHT22;1336;48.692;9.144;2022-09-14T10:20:05;26.80;97.20
2653;DHT22;1336;48.692;9.144;2022-09-14T10:21:07;26.80;97.20
2653;DHT22;1336;48.692;9.144;2022-09-14T10:22:12;26.70;97.20
2653;DHT22;1336;48.692;9.144;2022-09-14T10:23:22;26.70;97.20
2653;DHT22;1336;48.692;9.144;2022-09-14T10:24:17;26.60;97.20
2653;DHT22;1336;48.692;9.144;2022-09-14T10:25:20;26.50;97.20
2653;DHT22;1336;48.692;9.144;2022-09-14T10:26:24;26.40;97.20
2653;DHT22;1336;48.692;9.144;2022-09-14T10:27:34;26.30;97.20
2653;DHT22;1336;48.692;9.144;2022-09-14T10:28:32;26.30;97.20
2653;DHT22;1336;48.692;9.144;2022-09-14T10:29:34;26.20;97.20
2653;DHT22;1336;48.692;9.144;2022-09-14T10:30:30;26.20;97.20
2653;DHT22;1336;48.692;9.144;2022-09-14T10:31:26;26.10;97.20
2653;DHT22;1336;48.692;9.144;2022-09-14T10:32:22;26.10;97.20
2653;DHT22;1336;48.692;9.144;2022-09-14T10:33:14;26.10;97.20
2653;DHT22;1336;48.692;9.144;2022-09-14T10:34:12;26.10;97.20
2653;DHT22;1336;48.692;9.144;2022-09-14T10:35:11;26.10;97.20
2653;DHT22;1336;48.692;9.144;2022-09-14T10:36:09;26.10;97.20
2653;DHT22;1336;48.692;9.144;2022-09-14T10:37:23;26.00;97.20
2653;DHT22;1336;48.692;9.144;2022-09-14T10:38:29;26.00;97.20
2653;DHT22;1336;48.692;9.144;2022-09-14T10:39:23;26.00;97.20
2653;DHT22;1336;48.692;9.144;2022-09-14T10:40:18;26.00;97.20
2653;DHT22;1336;48.692;9.144;2022-09-14T10:41:20;26.00;97.20
2653;DHT22;1336;48.692;9.144;2022-09-14T10:42:18;25.90;97.20
2653;DHT22;1336;48.692;9.144;2022-09-14T10:43:15;25.90;97.20
2653;DHT22;1336;48.692;9.144;2022-09-14T10:44:26;25.90;97.20
2653;DHT22;1336;48.692;9.144;2022-09-14T10:45:26;25.80;97.20
2653;DHT22;1336;48.692;9.144;2022-09-14T10:46:20;25.80;97.20
2653;DHT22;1336;48.692;9.144;2022-09-14T10:47:27;25.80;97.20
2653;DHT22;1336;48.692;9.144;2022-09-14T10:48:59;25.70;97.20
2653;DHT22;1336;48.692;9.144;2022-09-14T10:50:06;25.70;97.20
2653;DHT22;1336;48.692;9.144;2022-09-14T10:51:16;25.60;97.20
2653;DHT22;1336;48.692;9.144;2022-09-14T10:52:15;25.60;97.20